createdAt,value
2018-02-21T00:01:15.971Z,1.84
2018-02-21T00:03:43.544Z,1.85
2018-02-21T00:06:11.222Z,1.83
2018-02-21T00:08:38.787Z,1.83
2018-02-21T00:11:06.326Z,1.80
2018-02-21T00:13:34.422Z,1.74
2018-02-21T00:16:01.974Z,1.76
2018-02-21T00:18:29.514Z,1.74
2018-02-21T00:20:57.096Z,1.74
2018-02-21T00:23:24.644Z,1.77
2018-02-21T00:25:52.195Z,1.77
2018-02-21T00:28:20.065Z,1.79
2018-02-21T00:30:47.600Z,1.79
2018-02-21T00:33:15.139Z,1.83
2018-02-21T00:35:42.714Z,1.85
2018-02-21T00:38:10.259Z,1.86
2018-02-21T00:40:37.807Z,1.84
2018-02-21T00:43:05.684Z,1.84
2018-02-21T00:45:33.240Z,1.86
2018-02-21T00:48:00.786Z,1.86
2018-02-21T00:50:28.382Z,1.86
2018-02-21T00:52:55.936Z,1.88
2018-02-21T00:55:23.480Z,1.91
2018-02-21T00:57:51.071Z,1.90
2018-02-21T01:00:18.654Z,1.87
2018-02-21T01:02:46.212Z,1.87
2018-02-21T01:05:13.959Z,1.84
2018-02-21T01:07:41.506Z,1.89
2018-02-21T01:10:09.048Z,1.87
2018-02-21T01:12:36.638Z,1.91
2018-02-21T01:15:04.194Z,1.87
2018-02-21T01:17:31.747Z,1.87
2018-02-21T01:19:59.338Z,1.81
2018-02-21T01:22:26.892Z,1.84
2018-02-21T01:24:54.444Z,1.80
2018-02-21T01:27:22.178Z,1.81
2018-02-21T01:29:49.723Z,1.78
2018-02-21T01:32:17.268Z,1.71
2018-02-21T01:34:44.954Z,1.61
2018-02-21T01:37:12.502Z,1.62
2018-02-21T01:39:40.057Z,1.60
2018-02-21T01:42:07.647Z,1.58
2018-02-21T01:44:35.193Z,1.60
2018-02-21T01:47:02.763Z,1.58
2018-02-21T01:49:30.505Z,1.61
2018-02-21T01:51:58.054Z,1.59
2018-02-21T01:54:25.608Z,1.56
2018-02-21T01:56:53.197Z,1.59
2018-02-21T01:59:20.730Z,1.61
2018-02-21T02:01:48.288Z,1.62
2018-02-21T02:04:15.915Z,1.60
2018-02-21T02:06:43.459Z,1.62
2018-02-21T02:09:11.006Z,1.60
2018-02-21T02:11:38.881Z,1.60
2018-02-21T02:14:06.422Z,1.58
2018-02-21T02:16:33.973Z,1.58
2018-02-21T02:19:01.520Z,1.51
2018-02-21T02:21:29.076Z,1.48
2018-02-21T02:23:57.703Z,1.43
2018-02-21T02:26:25.241Z,1.33
2018-02-21T02:28:52.954Z,1.33
2018-02-21T02:31:20.692Z,1.30
2018-02-21T02:33:48.233Z,1.27
2018-02-21T02:36:15.779Z,1.19
2018-02-21T02:38:55.375Z,1.19
2018-02-21T02:41:22.932Z,1.12
2018-02-21T02:43:50.478Z,1.10
2018-02-21T02:46:18.068Z,1.08
2018-02-21T02:48:45.669Z,1.05
2018-02-21T02:51:13.243Z,1.04
2018-02-21T02:53:40.873Z,1.05
2018-02-21T02:56:08.434Z,1.10
2018-02-21T02:58:35.986Z,1.09
2018-02-21T03:01:03.563Z,1.10
2018-02-21T03:03:31.110Z,1.10
2018-02-21T03:05:58.643Z,1.07
2018-02-21T03:08:26.515Z,1.07
2018-02-21T03:10:54.054Z,1.01
2018-02-21T03:13:21.594Z,1.03
2018-02-21T03:15:49.328Z,1.06
2018-02-21T03:18:16.880Z,1.01
2018-02-21T03:20:44.433Z,0.98
2018-02-21T03:23:12.013Z,0.95
2018-02-21T03:25:39.551Z,0.95
2018-02-21T03:28:07.081Z,0.92
2018-02-21T03:30:34.670Z,0.93
2018-02-21T03:33:02.251Z,0.93
2018-02-21T03:35:29.795Z,0.90
2018-02-21T03:37:57.470Z,0.88
2018-02-21T03:40:25.014Z,0.90
2018-02-21T03:42:52.563Z,0.92
2018-02-21T03:45:20.187Z,0.90
2018-02-21T03:47:47.718Z,0.87
2018-02-21T03:50:15.268Z,0.89
2018-02-21T03:52:42.864Z,0.88
2018-02-21T03:55:10.411Z,0.86
2018-02-21T03:57:37.960Z,0.83
2018-02-21T04:00:05.665Z,0.83
2018-02-21T04:02:33.217Z,0.84
2018-02-21T04:05:00.761Z,0.86
2018-02-21T04:07:28.813Z,0.86
2018-02-21T04:09:56.361Z,0.85
2018-02-21T04:12:23.925Z,0.86
2018-02-21T04:14:51.691Z,0.88
2018-02-21T04:17:19.283Z,0.90
2018-02-21T04:19:46.823Z,0.86
2018-02-21T04:22:14.527Z,0.86
2018-02-21T04:24:42.079Z,0.83
2018-02-21T04:27:09.627Z,0.83
2018-02-21T04:29:37.195Z,0.89
2018-02-21T04:32:04.759Z,0.85
2018-02-21T04:34:32.310Z,0.90
2018-02-21T04:37:00.174Z,0.93
2018-02-21T04:39:27.713Z,0.96
2018-02-21T04:41:55.251Z,1.00
2018-02-21T04:44:22.979Z,1.04
2018-02-21T04:46:50.524Z,1.04
2018-02-21T04:49:18.065Z,1.04
2018-02-21T04:51:45.654Z,1.05
2018-02-21T04:54:13.240Z,1.04
2018-02-21T04:56:49.574Z,0.96
2018-02-21T04:59:21.829Z,0.96
2018-02-21T05:01:49.418Z,1.01
2018-02-21T05:04:17.295Z,0.99
2018-02-21T05:06:44.843Z,1.01
2018-02-21T05:09:12.391Z,0.97
2018-02-21T05:11:40.074Z,1.00
2018-02-21T05:14:07.620Z,0.97
2018-02-21T05:16:35.199Z,1.04
2018-02-21T05:19:02.753Z,1.09
2018-02-21T05:21:30.299Z,1.11
2018-02-21T05:23:57.886Z,1.11
2018-02-21T05:26:25.450Z,1.05
2018-02-21T05:28:53.010Z,1.12
2018-02-21T05:31:20.593Z,1.07
2018-02-21T05:33:48.164Z,1.09
2018-02-21T05:36:15.750Z,1.15
2018-02-21T05:38:43.626Z,1.14
2018-02-21T05:41:11.182Z,1.22
2018-02-21T05:43:38.724Z,1.25
2018-02-21T05:46:06.302Z,1.28
2018-02-21T05:48:33.854Z,1.31
2018-02-21T05:51:01.384Z,1.33
2018-02-21T05:53:29.112Z,1.34
2018-02-21T05:55:56.668Z,1.38
2018-02-21T05:58:24.816Z,1.43
2018-02-21T06:00:52.490Z,1.43
2018-02-21T06:03:20.051Z,1.43
2018-02-21T06:05:47.600Z,1.44
2018-02-21T06:08:15.206Z,1.50
2018-02-21T06:10:42.741Z,1.54
2018-02-21T06:13:10.285Z,1.58
2018-02-21T06:15:37.862Z,1.63
2018-02-21T06:18:05.395Z,1.66
2018-02-21T06:20:32.947Z,1.68
2018-02-21T06:23:00.696Z,1.71
2018-02-21T06:25:28.255Z,1.78
2018-02-21T06:27:55.814Z,1.84
2018-02-21T06:30:23.430Z,1.96
2018-02-21T06:32:50.967Z,2.02
2018-02-21T06:35:18.524Z,2.14
2018-02-21T06:37:46.102Z,2.27
2018-02-21T06:40:13.643Z,2.40
2018-02-21T06:42:41.194Z,2.54
2018-02-21T06:45:08.941Z,2.61
2018-02-21T06:47:36.493Z,2.70
2018-02-21T06:50:04.080Z,2.78
2018-02-21T06:52:31.658Z,2.87
2018-02-21T06:54:59.213Z,3.03
2018-02-21T06:57:26.745Z,3.18
2018-02-21T06:59:54.335Z,3.34
2018-02-21T07:02:33.531Z,3.39
2018-02-21T07:05:01.130Z,3.49
2018-02-21T07:07:28.723Z,3.47
2018-02-21T07:09:56.280Z,3.37
2018-02-21T07:12:23.877Z,3.38
2018-02-21T07:14:51.467Z,3.41
2018-02-21T07:17:19.027Z,3.33
2018-02-21T07:19:46.628Z,3.37
2018-02-21T07:22:14.190Z,3.30
2018-02-21T07:24:41.779Z,3.29
2018-02-21T07:27:09.374Z,3.26
2018-02-21T07:29:36.915Z,3.33
2018-02-21T07:32:04.463Z,3.31
2018-02-21T07:34:32.057Z,3.38
2018-02-21T07:36:59.621Z,3.35
2018-02-21T07:39:27.166Z,3.43
2018-02-21T07:41:54.920Z,3.55
2018-02-21T07:44:22.500Z,3.61
2018-02-21T07:46:50.034Z,3.58
2018-02-21T07:49:17.617Z,3.61
2018-02-21T07:51:45.162Z,3.57
2018-02-21T07:54:12.738Z,3.61
2018-02-21T07:56:40.340Z,3.62
2018-02-21T07:59:07.883Z,3.58
2018-02-21T08:01:35.427Z,3.75
2018-02-21T08:04:02.995Z,3.79
2018-02-21T08:06:30.552Z,3.89
2018-02-21T08:08:58.114Z,3.99
2018-02-21T08:11:25.983Z,3.98
2018-02-21T08:13:53.538Z,4.13
2018-02-21T08:16:21.083Z,4.21
2018-02-21T08:18:48.620Z,4.26
2018-02-21T08:21:16.192Z,4.44
2018-02-21T08:23:43.758Z,4.54
2018-02-21T08:26:11.307Z,4.40
2018-02-21T08:28:38.846Z,4.55
2018-02-21T08:31:06.428Z,4.57
2018-02-21T08:33:34.009Z,4.56
2018-02-21T08:36:01.559Z,4.55
2018-02-21T08:38:29.152Z,4.67
2018-02-21T08:40:56.712Z,4.72
2018-02-21T08:43:24.834Z,4.86
2018-02-21T08:45:52.590Z,4.84
2018-02-21T08:48:20.174Z,4.80
2018-02-21T08:50:47.733Z,4.72
2018-02-21T08:53:15.347Z,4.76
2018-02-21T08:55:42.900Z,4.90
2018-02-21T08:58:10.474Z,5.00
2018-02-21T09:00:38.045Z,5.08
2018-02-21T09:03:05.599Z,5.21
2018-02-21T09:05:33.176Z,5.20
2018-02-21T09:08:00.751Z,5.17
2018-02-21T09:10:28.299Z,5.28
2018-02-21T09:12:55.836Z,5.21
2018-02-21T09:15:23.519Z,5.22
2018-02-21T09:17:51.057Z,5.26
2018-02-21T09:20:18.607Z,5.44
2018-02-21T09:22:46.345Z,5.38
2018-02-21T09:25:13.904Z,5.41
2018-02-21T09:27:41.461Z,5.45
2018-02-21T09:30:09.152Z,5.27
2018-02-21T09:32:36.713Z,5.03
2018-02-21T09:35:04.271Z,5.03
2018-02-21T09:37:31.997Z,5.08
2018-02-21T09:39:59.545Z,5.04
2018-02-21T09:42:27.094Z,4.96
2018-02-21T09:44:54.834Z,4.88
2018-02-21T09:47:22.378Z,4.88
2018-02-21T09:49:49.930Z,4.87
2018-02-21T09:52:17.508Z,4.89
2018-02-21T09:54:45.050Z,4.80
2018-02-21T09:57:12.603Z,4.69
2018-02-21T09:59:40.197Z,4.79
2018-02-21T10:02:07.735Z,4.89
2018-02-21T10:04:35.273Z,4.98
2018-02-21T10:07:03.135Z,5.01
2018-02-21T10:09:30.703Z,4.98
2018-02-21T10:11:58.272Z,5.08
2018-02-21T10:14:26.791Z,4.94
2018-02-21T10:16:54.343Z,4.98
2018-02-21T10:19:21.879Z,4.94
2018-02-21T10:21:49.540Z,5.01
2018-02-21T10:24:17.108Z,4.83
2018-02-21T10:26:44.721Z,4.79
2018-02-21T10:29:12.305Z,4.94
2018-02-21T10:31:39.849Z,5.04
2018-02-21T10:34:07.426Z,5.15
2018-02-21T10:36:35.297Z,5.26
2018-02-21T10:39:02.871Z,5.55
2018-02-21T10:41:30.427Z,5.70
2018-02-21T10:43:58.014Z,5.62
2018-02-21T10:46:25.567Z,5.78
2018-02-21T10:48:53.110Z,5.75
2018-02-21T10:51:21.721Z,5.82
2018-02-21T10:53:49.274Z,5.73
2018-02-21T10:56:16.850Z,5.72
2018-02-21T10:58:44.528Z,5.79
2018-02-21T11:01:17.514Z,5.79
2018-02-21T11:03:45.088Z,5.68
2018-02-21T11:06:12.647Z,5.83
2018-02-21T11:08:40.210Z,6.01
2018-02-21T11:11:07.943Z,5.79
2018-02-21T11:13:35.507Z,5.91
2018-02-21T11:16:03.058Z,6.19
2018-02-21T11:18:30.610Z,6.04
2018-02-21T11:20:58.160Z,6.12
2018-02-21T11:23:25.891Z,6.28
2018-02-21T11:25:53.426Z,6.21
2018-02-21T11:28:20.965Z,6.39
2018-02-21T11:30:48.648Z,6.27
2018-02-21T11:33:16.195Z,6.33
2018-02-21T11:35:43.769Z,6.41
2018-02-21T11:38:11.356Z,6.44
2018-02-21T11:40:38.947Z,6.39
2018-02-21T11:43:06.496Z,6.30
2018-02-21T11:45:34.081Z,6.10
2018-02-21T11:48:01.623Z,6.04
2018-02-21T11:50:29.163Z,6.19
2018-02-21T11:52:56.746Z,6.43
2018-02-21T11:55:24.283Z,6.41
2018-02-21T11:57:51.829Z,6.33
2018-02-21T12:00:19.501Z,6.15
2018-02-21T12:02:47.099Z,6.04
2018-02-21T12:05:14.643Z,5.81
2018-02-21T12:07:42.329Z,5.40
2018-02-21T12:10:09.878Z,5.11
2018-02-21T12:12:37.414Z,5.26
2018-02-21T12:15:05.042Z,5.16
2018-02-21T12:17:32.598Z,5.16
2018-02-21T12:20:00.162Z,4.94
2018-02-21T12:22:27.756Z,4.90
2018-02-21T12:24:55.358Z,4.65
2018-02-21T12:27:23.110Z,4.59
2018-02-21T12:29:50.782Z,4.67
2018-02-21T12:32:19.131Z,5.00
2018-02-21T12:34:46.698Z,5.09
2018-02-21T12:37:14.307Z,5.11
2018-02-21T12:39:41.879Z,5.02
2018-02-21T12:42:09.425Z,5.22
2018-02-21T12:44:37.427Z,5.21
2018-02-21T12:47:05.032Z,4.82
2018-02-21T12:49:32.595Z,4.58
2018-02-21T12:52:00.173Z,4.55
2018-02-21T12:54:27.725Z,4.68
2018-02-21T12:56:55.273Z,4.50
2018-02-21T12:59:23.069Z,4.60
2018-02-21T13:01:50.605Z,4.63
2018-02-21T13:04:18.168Z,4.77
2018-02-21T13:06:45.751Z,4.96
2018-02-21T13:09:13.335Z,4.92
2018-02-21T13:11:40.903Z,4.70
2018-02-21T13:14:08.487Z,4.65
2018-02-21T13:16:36.028Z,4.50
2018-02-21T13:19:03.578Z,4.32
2018-02-21T13:21:31.270Z,4.20
2018-02-21T13:23:58.819Z,3.96
2018-02-21T13:26:26.362Z,3.92
2018-02-21T13:28:53.957Z,3.84
2018-02-21T13:31:21.520Z,3.78
2018-02-21T13:33:49.084Z,3.61
2018-02-21T13:36:16.688Z,3.66
2018-02-21T13:38:44.244Z,3.72
2018-02-21T13:41:11.789Z,3.59
2018-02-21T13:43:39.747Z,3.59
2018-02-21T13:46:07.309Z,3.58
2018-02-21T13:48:34.873Z,3.61
2018-02-21T13:51:02.933Z,3.48
2018-02-21T13:53:30.501Z,3.58
2018-02-21T13:55:58.061Z,3.65
2018-02-21T13:58:25.947Z,3.62
2018-02-21T14:00:53.507Z,3.47
2018-02-21T14:03:21.067Z,3.32
2018-02-21T14:05:48.777Z,3.26
2018-02-21T14:08:16.330Z,3.25
2018-02-21T14:10:43.882Z,3.20
2018-02-21T14:13:12.111Z,3.15
2018-02-21T14:15:39.681Z,3.10
2018-02-21T14:18:07.406Z,3.01
2018-02-21T14:20:35.130Z,3.01
2018-02-21T14:23:02.688Z,3.00
2018-02-21T14:25:30.234Z,2.96
2018-02-21T14:27:57.834Z,3.01
2018-02-21T14:30:25.397Z,3.05
2018-02-21T14:32:52.964Z,3.05
2018-02-21T14:35:20.548Z,2.98
2018-02-21T14:37:48.139Z,2.89
2018-02-21T14:40:15.716Z,2.83
2018-02-21T14:42:43.408Z,2.85
2018-02-21T14:45:10.987Z,2.84
2018-02-21T14:47:38.535Z,2.76
2018-02-21T14:50:06.228Z,2.77
2018-02-21T14:52:33.785Z,2.79
2018-02-21T14:55:01.335Z,2.72
2018-02-21T14:57:29.080Z,2.71
2018-02-21T14:59:56.652Z,2.72
2018-02-21T15:02:24.206Z,2.73
2018-02-21T15:04:51.943Z,2.72
2018-02-21T15:07:19.530Z,2.67
2018-02-21T15:09:47.117Z,2.70
2018-02-21T15:12:14.706Z,2.63
2018-02-21T15:14:42.268Z,2.62
2018-02-21T15:17:09.828Z,2.64
2018-02-21T15:19:37.379Z,2.60
2018-02-21T15:22:04.931Z,2.56
2018-02-21T15:24:32.519Z,2.55
2018-02-21T15:27:00.083Z,2.51
2018-02-21T15:29:27.647Z,2.49
2018-02-21T15:31:55.563Z,2.45
2018-02-21T15:34:23.107Z,2.50
2018-02-21T15:36:50.674Z,2.45
2018-02-21T15:39:18.370Z,2.45
2018-02-21T15:41:45.920Z,2.49
2018-02-21T15:44:13.501Z,2.48
2018-02-21T15:46:41.291Z,2.45
2018-02-21T15:49:08.865Z,2.41
2018-02-21T15:51:36.421Z,2.41
2018-02-21T15:54:04.300Z,2.41
2018-02-21T15:56:31.857Z,2.38
2018-02-21T15:58:59.423Z,2.27
2018-02-21T16:01:27.028Z,2.26
2018-02-21T16:03:54.596Z,2.25
2018-02-21T16:06:22.162Z,2.23
2018-02-21T16:08:49.772Z,2.20
2018-02-21T16:11:17.325Z,2.18
2018-02-21T16:13:44.908Z,2.18
2018-02-21T16:16:12.661Z,2.18
2018-02-21T16:18:40.231Z,2.15
2018-02-21T16:21:07.773Z,2.16
2018-02-21T16:23:35.393Z,2.14
2018-02-21T16:26:02.946Z,2.19
2018-02-21T16:28:30.509Z,2.18
2018-02-21T16:30:59.124Z,2.21
2018-02-21T16:33:26.666Z,2.21
2018-02-21T16:35:54.206Z,2.18
2018-02-21T16:38:21.930Z,2.20
2018-02-21T16:40:49.480Z,2.20
2018-02-21T16:43:17.025Z,2.17
2018-02-21T16:45:44.732Z,2.18
2018-02-21T16:48:12.285Z,2.21
2018-02-21T16:50:39.835Z,2.23
2018-02-21T16:53:07.706Z,2.26
2018-02-21T16:55:35.273Z,2.25
2018-02-21T16:58:02.831Z,2.27
2018-02-21T17:00:30.419Z,2.26
2018-02-21T17:02:57.985Z,2.26
2018-02-21T17:05:25.542Z,2.31
2018-02-21T17:07:53.227Z,2.31
2018-02-21T17:10:21.642Z,2.29
2018-02-21T17:12:49.237Z,2.33
2018-02-21T17:15:17.024Z,2.34
2018-02-21T17:17:44.594Z,2.36
2018-02-21T17:20:12.178Z,2.38
2018-02-21T17:22:40.003Z,2.34
2018-02-21T17:25:07.589Z,2.35
2018-02-21T17:27:35.194Z,2.38
2018-02-21T17:30:02.803Z,2.33
2018-02-21T17:32:30.366Z,2.34
2018-02-21T17:34:57.991Z,2.32
2018-02-21T17:37:25.602Z,2.36
2018-02-21T17:39:53.167Z,2.35
2018-02-21T17:42:20.745Z,2.28
2018-02-21T17:44:48.374Z,2.25
2018-02-21T17:47:15.968Z,2.26
2018-02-21T17:49:43.525Z,2.29
2018-02-21T17:52:11.140Z,2.27
2018-02-21T17:54:38.714Z,2.27
2018-02-21T17:57:06.268Z,2.26
2018-02-21T17:59:34.048Z,2.28
2018-02-21T18:02:01.630Z,2.34
2018-02-21T18:04:29.185Z,2.34
2018-02-21T18:06:56.800Z,2.35
2018-02-21T18:09:24.397Z,2.35
2018-02-21T18:11:51.979Z,2.34
2018-02-21T18:14:19.582Z,2.34
2018-02-21T18:16:47.162Z,2.35
2018-02-21T18:19:14.731Z,2.34
2018-02-21T18:21:47.799Z,2.36
2018-02-21T18:24:15.371Z,2.40
2018-02-21T18:26:42.918Z,2.41
2018-02-21T18:29:10.695Z,2.45
2018-02-21T18:31:38.260Z,2.51
2018-02-21T18:34:05.841Z,2.53
2018-02-21T18:36:33.542Z,2.56
2018-02-21T18:39:01.096Z,2.60
2018-02-21T18:41:28.648Z,2.60
2018-02-21T18:43:56.558Z,2.60
2018-02-21T18:46:24.136Z,2.65
2018-02-21T18:48:51.784Z,2.70
2018-02-21T18:51:19.373Z,2.66
2018-02-21T18:53:47.005Z,2.63
2018-02-21T18:56:14.675Z,2.62
2018-02-21T18:58:42.703Z,2.61
2018-02-21T19:01:10.617Z,2.63
2018-02-21T19:03:38.215Z,2.61
2018-02-21T19:06:06.253Z,2.63
2018-02-21T19:08:33.983Z,2.66
2018-02-21T19:11:01.651Z,2.67
2018-02-21T19:13:29.373Z,2.62
2018-02-21T19:15:56.957Z,2.64
2018-02-21T19:18:24.612Z,2.63
2018-02-21T19:20:52.344Z,2.65
2018-02-21T19:23:19.932Z,2.60
2018-02-21T19:25:47.567Z,2.61
2018-02-21T19:28:15.371Z,2.64
2018-02-21T19:30:43.094Z,2.65
2018-02-21T19:33:10.902Z,2.66
2018-02-21T19:35:39.434Z,2.65
2018-02-21T19:38:07.347Z,2.68
2018-02-21T19:40:35.037Z,2.67
2018-02-21T19:43:02.749Z,2.67
2018-02-21T19:45:30.428Z,2.66
2018-02-21T19:47:58.084Z,2.63
2018-02-21T19:50:26.003Z,2.65
2018-02-21T19:52:53.727Z,2.60
2018-02-21T19:55:21.355Z,2.57
2018-02-21T19:57:48.993Z,2.58
2018-02-21T20:00:16.623Z,2.58
2018-02-21T20:02:44.243Z,2.58
2018-02-21T20:05:11.922Z,2.56
2018-02-21T20:07:39.543Z,2.57
2018-02-21T20:10:07.172Z,2.54
2018-02-21T20:12:34.808Z,2.51
2018-02-21T20:15:02.406Z,2.51
2018-02-21T20:17:29.981Z,2.53
2018-02-21T20:19:57.556Z,2.54
2018-02-21T20:22:25.112Z,2.54
2018-02-21T20:24:53.043Z,2.57
2018-02-21T20:27:20.642Z,2.58
2018-02-21T20:29:48.235Z,2.62
2018-02-21T20:32:16.019Z,2.59
2018-02-21T20:34:43.627Z,2.58
2018-02-21T20:37:11.206Z,2.56
2018-02-21T20:39:38.810Z,2.61
2018-02-21T20:42:06.406Z,2.64
2018-02-21T20:44:33.996Z,2.65
2018-02-21T20:47:01.799Z,2.61
2018-02-21T20:49:29.341Z,2.63
2018-02-21T20:51:56.903Z,2.63
2018-02-21T20:54:24.653Z,2.61
2018-02-21T20:56:52.226Z,2.63
2018-02-21T20:59:19.774Z,2.62
2018-02-21T21:01:47.502Z,2.62
2018-02-21T21:04:15.065Z,2.59
2018-02-21T21:06:42.630Z,2.57
2018-02-21T21:09:10.228Z,2.54
2018-02-21T21:11:37.802Z,2.51
2018-02-21T21:14:05.360Z,2.57
2018-02-21T21:16:32.951Z,2.53
2018-02-21T21:19:00.507Z,2.52
2018-02-21T21:21:28.051Z,2.50
2018-02-21T21:23:55.728Z,2.44
2018-02-21T21:26:23.276Z,2.42
2018-02-21T21:28:50.821Z,2.41
2018-02-21T21:31:18.415Z,2.38
2018-02-21T21:33:46.000Z,2.39
2018-02-21T21:36:13.556Z,2.32
2018-02-21T21:38:41.286Z,2.36
2018-02-21T21:41:08.835Z,2.39
2018-02-21T21:43:36.383Z,2.40
2018-02-21T21:46:03.968Z,2.38
2018-02-21T21:48:31.519Z,2.34
2018-02-21T21:50:59.083Z,2.29
2018-02-21T21:53:26.834Z,2.33
2018-02-21T21:55:54.379Z,2.30
2018-02-21T21:58:21.924Z,2.32
2018-02-21T22:00:49.569Z,2.28
2018-02-21T22:03:17.130Z,2.28
2018-02-21T22:05:44.698Z,2.25
2018-02-21T22:08:12.281Z,2.24
2018-02-21T22:10:39.826Z,2.20
2018-02-21T22:13:07.372Z,2.22
2018-02-21T22:15:34.959Z,2.24
2018-02-21T22:18:02.486Z,2.21
2018-02-21T22:20:30.093Z,2.21
2018-02-21T22:22:57.674Z,2.21
2018-02-21T22:25:25.225Z,2.22
2018-02-21T22:27:52.783Z,2.23
2018-02-21T22:30:20.393Z,2.25
2018-02-21T22:32:47.929Z,2.24
2018-02-21T22:35:15.463Z,2.19
2018-02-21T22:37:43.324Z,2.24
2018-02-21T22:40:10.870Z,2.20
2018-02-21T22:42:38.420Z,2.20
2018-02-21T22:45:06.303Z,2.19
2018-02-21T22:47:33.838Z,2.22
2018-02-21T22:50:01.389Z,2.19
2018-02-21T22:52:29.110Z,2.23
2018-02-21T22:54:56.659Z,2.26
2018-02-21T22:57:24.194Z,2.29
2018-02-21T22:59:51.920Z,2.27
2018-02-21T23:02:19.461Z,2.32
2018-02-21T23:04:47.046Z,2.31
2018-02-21T23:07:14.672Z,2.33
2018-02-21T23:09:42.213Z,2.34
2018-02-21T23:12:09.808Z,2.35
2018-02-21T23:14:37.356Z,2.36
2018-02-21T23:17:04.904Z,2.36
2018-02-21T23:19:32.447Z,2.38
2018-02-21T23:22:00.173Z,2.38
2018-02-21T23:24:27.727Z,2.40
2018-02-21T23:26:55.269Z,2.42
2018-02-21T23:29:22.994Z,2.42
2018-02-21T23:31:50.552Z,2.36
2018-02-21T23:34:18.095Z,2.34
2018-02-21T23:36:45.966Z,2.32
2018-02-21T23:39:13.506Z,2.29
2018-02-21T23:41:41.044Z,2.32
2018-02-21T23:44:08.778Z,2.32
2018-02-21T23:46:36.305Z,2.32
2018-02-21T23:49:03.865Z,2.31
2018-02-21T23:51:31.449Z,2.32
2018-02-21T23:53:59.031Z,2.33
2018-02-21T23:56:26.553Z,2.35
2018-02-21T23:58:54.114Z,2.35
